createdAt,value
2019-04-07T00:01:57.281Z,944.4
2019-04-07T00:05:15.435Z,944.4
2019-04-07T00:08:24.717Z,944.4
2019-04-07T00:11:34.601Z,944.4
2019-04-07T00:14:41.444Z,944.4
2019-04-07T00:17:49.526Z,944.4
2019-04-07T00:20:57.902Z,944.3
2019-04-07T00:24:06.970Z,944.3
2019-04-07T00:27:14.975Z,944.3
2019-04-07T00:30:23.537Z,944.3
2019-04-07T00:33:29.604Z,944.2
2019-04-07T00:36:38.481Z,944.1
2019-04-07T00:39:45.673Z,944.2
2019-04-07T00:42:56.687Z,944.1
2019-04-07T00:46:05.620Z,944.1
2019-04-07T00:49:14.867Z,944.1
2019-04-07T00:52:23.694Z,944
2019-04-07T00:55:33.084Z,943.9
2019-04-07T00:58:40.314Z,944
2019-04-07T01:01:48.923Z,943.9
2019-04-07T01:04:58.347Z,944
2019-04-07T01:08:06.286Z,944
2019-04-07T01:11:14.005Z,943.9
2019-04-07T01:14:22.438Z,943.9
2019-04-07T01:17:31.854Z,943.9
2019-04-07T01:20:39.699Z,943.9
2019-04-07T01:23:50.196Z,943.8
2019-04-07T01:26:58.900Z,943.7
2019-04-07T01:30:07.815Z,943.7
2019-04-07T01:33:16.383Z,943.7
2019-04-07T01:36:24.939Z,943.8
2019-04-07T01:39:32.834Z,943.7
2019-04-07T01:42:41.599Z,943.6
2019-04-07T01:45:49.959Z,943.7
2019-04-07T01:48:58.563Z,943.7
2019-04-07T01:52:07.183Z,943.6
2019-04-07T01:55:16.179Z,943.6
2019-04-07T01:58:23.805Z,943.6
2019-04-07T02:01:32.686Z,943.6
2019-04-07T02:04:41.074Z,943.6
2019-04-07T02:07:48.995Z,943.6
2019-04-07T02:10:59.110Z,943.5
2019-04-07T02:14:07.885Z,943.5
2019-04-07T02:17:16.138Z,943.5
2019-04-07T02:20:24.391Z,943.4
2019-04-07T02:23:33.872Z,943.4
2019-04-07T02:26:41.172Z,943.4
2019-04-07T02:29:51.185Z,943.4
2019-04-07T02:33:02.221Z,943.5
2019-04-07T02:36:30.374Z,943.5
2019-04-07T02:39:42.138Z,943.5
2019-04-07T02:42:51.673Z,943.5
2019-04-07T02:46:02.250Z,943.5
2019-04-07T02:49:12.287Z,943.5
2019-04-07T02:52:20.322Z,943.5
2019-04-07T02:55:29.982Z,943.4
2019-04-07T02:58:40.098Z,943.4
2019-04-07T03:01:48.434Z,943.3
2019-04-07T03:04:58.567Z,943.4
2019-04-07T03:08:11.922Z,943.4
2019-04-07T03:11:23.056Z,943.4
2019-04-07T03:14:33.376Z,943.4
2019-04-07T03:17:43.599Z,943.3
2019-04-07T03:20:53.467Z,943.3
2019-04-07T03:24:02.010Z,943.3
2019-04-07T03:27:11.389Z,943.3
2019-04-07T03:30:28.280Z,943.3
2019-04-07T03:33:58.915Z,943.3
2019-04-07T03:37:46.886Z,943.4
2019-04-07T03:40:58.964Z,943.3
2019-04-07T03:44:09.249Z,943.2
2019-04-07T03:47:18.365Z,943.3
2019-04-07T03:50:27.927Z,943.3
2019-04-07T03:53:41.035Z,943.3
2019-04-07T03:56:50.200Z,943.4
2019-04-07T03:59:59.488Z,943.4
2019-04-07T04:03:10.891Z,943.4
2019-04-07T04:06:20.631Z,943.3
2019-04-07T04:09:28.399Z,943.4
2019-04-07T04:12:43.665Z,943.3
2019-04-07T04:15:54.278Z,943.3
2019-04-07T04:19:04.218Z,943.3
2019-04-07T04:22:15.410Z,943.3
2019-04-07T04:25:25.107Z,943.3
2019-04-07T04:28:35.360Z,943.3
2019-04-07T04:31:47.975Z,943.4
2019-04-07T04:34:57.510Z,943.2
2019-04-07T04:38:08.008Z,943.3
2019-04-07T04:41:16.565Z,943.3
2019-04-07T04:44:26.429Z,943.3
2019-04-07T04:47:35.465Z,943.3
2019-04-07T04:50:45.767Z,943.4
2019-04-07T04:53:54.935Z,943.3
2019-04-07T04:57:09.756Z,943.3
2019-04-07T05:00:21.750Z,943.4
2019-04-07T05:03:31.562Z,943.3
2019-04-07T05:06:41.282Z,943.4
2019-04-07T05:09:57.246Z,943.4
2019-04-07T05:13:05.815Z,943.4
2019-04-07T05:16:14.133Z,943.4
2019-04-07T05:19:24.341Z,943.4
2019-04-07T05:22:32.085Z,943.5
2019-04-07T05:25:41.845Z,943.5
2019-04-07T05:28:50.416Z,943.5
2019-04-07T05:31:58.078Z,943.5
2019-04-07T05:35:07.807Z,943.5
2019-04-07T05:38:16.497Z,943.5
2019-04-07T05:41:26.181Z,943.5
2019-04-07T05:44:36.394Z,943.5
2019-04-07T05:47:51.963Z,943.5
2019-04-07T05:51:03.447Z,943.5
2019-04-07T05:54:19.741Z,943.5
2019-04-07T05:57:36.074Z,943.5
2019-04-07T06:00:50.158Z,943.6
2019-04-07T06:03:58.851Z,943.6
2019-04-07T06:07:09.060Z,943.5
2019-04-07T06:10:22.271Z,943.5
2019-04-07T06:13:36.185Z,943.5
2019-04-07T06:16:55.290Z,943.5
2019-04-07T06:20:03.662Z,943.5
2019-04-07T06:23:29.359Z,943.5
2019-04-07T06:26:46.011Z,943.5
2019-04-07T06:30:02.408Z,943.6
2019-04-07T06:33:10.056Z,943.6
2019-04-07T06:36:22.199Z,943.6
2019-04-07T06:39:34.021Z,943.6
2019-04-07T06:42:46.421Z,943.6
2019-04-07T06:45:57.348Z,943.5
2019-04-07T06:49:05.897Z,943.6
2019-04-07T06:52:19.866Z,943.6
2019-04-07T06:55:32.934Z,943.6
2019-04-07T06:58:43.823Z,943.6
2019-04-07T07:01:53.310Z,943.6
2019-04-07T07:05:06.408Z,943.6
2019-04-07T07:08:23.549Z,943.6
2019-04-07T07:11:46.716Z,943.6
2019-04-07T07:14:56.111Z,943.6
2019-04-07T07:18:10.232Z,943.6
2019-04-07T07:21:25.849Z,943.6
2019-04-07T07:24:46.505Z,943.6
2019-04-07T07:28:04.952Z,943.6
2019-04-07T07:31:25.527Z,943.6
2019-04-07T07:34:34.597Z,943.6
2019-04-07T07:37:47.588Z,943.6
2019-04-07T07:41:05.369Z,943.6
2019-04-07T07:44:14.396Z,943.6
2019-04-07T07:47:24.187Z,943.6
2019-04-07T07:50:41.359Z,943.7
2019-04-07T07:53:50.462Z,943.6
2019-04-07T07:57:07.988Z,943.7
2019-04-07T08:00:17.565Z,943.7
2019-04-07T08:03:27.255Z,943.7
2019-04-07T08:06:41.174Z,943.7
2019-04-07T08:09:55.960Z,943.7
2019-04-07T08:13:10.249Z,943.7
2019-04-07T08:16:18.554Z,943.7
2019-04-07T08:19:33.773Z,943.7
2019-04-07T08:22:51.509Z,943.6
2019-04-07T08:26:01.056Z,943.6
2019-04-07T08:29:12.512Z,943.7
2019-04-07T08:32:31.801Z,943.7
2019-04-07T08:35:41.357Z,943.7
2019-04-07T08:38:55.625Z,943.7
2019-04-07T08:42:18.644Z,943.6
2019-04-07T08:45:33.445Z,943.6
2019-04-07T08:48:43.245Z,943.6
2019-04-07T08:52:03.374Z,943.4
2019-04-07T08:55:23.635Z,943.4
2019-04-07T08:58:40.121Z,943.4
2019-04-07T09:01:55.838Z,943.3
2019-04-07T09:05:04.423Z,943.3
2019-04-07T09:08:13.830Z,943.3
2019-04-07T09:11:24.662Z,943.2
2019-04-07T09:14:37.219Z,943.2
2019-04-07T09:17:50.247Z,943.2
2019-04-07T09:20:58.560Z,943.2
2019-04-07T09:24:08.250Z,943.1
2019-04-07T09:27:24.670Z,943.1
2019-04-07T09:30:32.618Z,943.1
2019-04-07T09:33:40.787Z,943.1
2019-04-07T09:36:55.650Z,943.1
2019-04-07T09:40:06.806Z,943.1
2019-04-07T09:43:21.098Z,943.1
2019-04-07T09:46:33.832Z,943
2019-04-07T09:49:59.435Z,942.9
2019-04-07T09:53:09.919Z,943
2019-04-07T09:56:32.351Z,942.9
2019-04-07T09:59:41.188Z,942.9
2019-04-07T10:02:57.269Z,942.8
2019-04-07T10:06:17.976Z,942.8
2019-04-07T10:09:24.140Z,942.8
2019-04-07T10:12:33.418Z,942.8
2019-04-07T10:15:40.764Z,942.8
2019-04-07T10:18:49.846Z,942.7
2019-04-07T10:22:04.010Z,942.7
2019-04-07T10:25:13.184Z,942.7
2019-04-07T10:28:20.782Z,942.6
2019-04-07T10:31:34.975Z,942.6
2019-04-07T10:34:44.949Z,942.6
2019-04-07T10:37:55.710Z,942.6
2019-04-07T10:41:05.640Z,942.6
2019-04-07T10:44:14.985Z,942.5
2019-04-07T10:47:24.600Z,942.5
2019-04-07T10:50:36.709Z,942.5
2019-04-07T10:53:47.243Z,942.5
2019-04-07T10:56:56.969Z,942.5
2019-04-07T11:00:07.395Z,942.5
2019-04-07T11:03:17.360Z,942.5
2019-04-07T11:06:27.253Z,942.5
2019-04-07T11:09:37.963Z,942.4
2019-04-07T11:12:48.586Z,942.5
2019-04-07T11:15:59.110Z,942.4
2019-04-07T11:19:06.800Z,942.4
2019-04-07T11:22:16.595Z,942.4
2019-04-07T11:25:24.379Z,942.3
2019-04-07T11:28:34.881Z,942.3
2019-04-07T11:31:43.951Z,942.3
2019-04-07T11:34:52.987Z,942.1
2019-04-07T11:38:02.692Z,942.2
2019-04-07T11:41:12.383Z,942.1
2019-04-07T11:44:29.962Z,942.2
2019-04-07T11:47:39.375Z,942.1
2019-04-07T11:50:48.913Z,942.1
2019-04-07T11:53:59.885Z,942.1
2019-04-07T11:57:10.869Z,942
2019-04-07T12:00:20.575Z,942
2019-04-07T12:03:30.994Z,941.9
2019-04-07T12:06:40.350Z,942
2019-04-07T12:09:55.235Z,941.9
2019-04-07T12:13:03.671Z,941.9
2019-04-07T12:16:12.201Z,941.8
2019-04-07T12:19:26.819Z,941.8
2019-04-07T12:22:36.313Z,941.8
2019-04-07T12:25:53.381Z,941.7
2019-04-07T12:29:09.983Z,941.7
2019-04-07T12:32:20.247Z,941.7
2019-04-07T12:35:29.496Z,941.7
2019-04-07T12:38:46.192Z,941.7
2019-04-07T12:41:59.390Z,941.7
2019-04-07T12:45:15.131Z,941.7
2019-04-07T12:48:25.828Z,941.7
2019-04-07T12:51:39.707Z,941.7
2019-04-07T12:54:48.265Z,941.6
2019-04-07T12:57:57.809Z,941.6
2019-04-07T13:01:21.155Z,941.6
2019-04-07T13:04:31.847Z,941.6
2019-04-07T13:07:40.361Z,941.6
2019-04-07T13:10:55.786Z,941.6
2019-04-07T13:14:14.011Z,941.6
2019-04-07T13:17:32.888Z,941.6
2019-04-07T13:20:51.215Z,941.6
2019-04-07T13:24:09.239Z,941.6
2019-04-07T13:27:52.057Z,941.5
2019-04-07T13:31:00.657Z,941.6
2019-04-07T13:34:09.340Z,941.6
2019-04-07T13:37:20.060Z,941.5
2019-04-07T13:40:28.309Z,941.5
2019-04-07T13:43:38.671Z,941.6
2019-04-07T13:46:47.886Z,941.5
2019-04-07T13:50:02.540Z,941.5
2019-04-07T13:53:12.152Z,941.5
2019-04-07T13:56:21.068Z,941.5
2019-04-07T13:59:29.979Z,941.5
2019-04-07T14:02:46.678Z,941.5
2019-04-07T14:05:55.823Z,941.5
2019-04-07T14:09:06.735Z,941.4
2019-04-07T14:12:16.140Z,941.4
2019-04-07T14:15:25.951Z,941.5
2019-04-07T14:18:36.700Z,941.4
2019-04-07T14:21:57.060Z,941.4
2019-04-07T14:25:06.346Z,941.4
2019-04-07T14:28:16.046Z,941.5
2019-04-07T14:31:29.347Z,941.4
2019-04-07T14:34:39.079Z,941.4
2019-04-07T14:37:47.336Z,941.4
2019-04-07T14:40:58.214Z,941.3
2019-04-07T14:44:08.404Z,941.3
2019-04-07T14:47:17.412Z,941.4
2019-04-07T14:50:27.153Z,941.3
2019-04-07T14:53:36.620Z,941.4
2019-04-07T14:56:44.970Z,941.4
2019-04-07T14:59:56.602Z,941.4
2019-04-07T15:03:09.359Z,941.4
2019-04-07T15:06:18.483Z,941.5
2019-04-07T15:09:36.001Z,941.5
2019-04-07T15:12:46.850Z,941.5
2019-04-07T15:15:54.766Z,941.4
2019-04-07T15:19:04.887Z,941.4
2019-04-07T15:22:13.240Z,941.4
2019-04-07T15:25:22.653Z,941.4
2019-04-07T15:28:34.998Z,941.4
2019-04-07T15:31:48.896Z,941.4
2019-04-07T15:35:00.043Z,941.4
2019-04-07T15:38:17.145Z,941.4
2019-04-07T15:41:33.902Z,941.4
2019-04-07T15:44:48.392Z,941.5
2019-04-07T15:47:57.619Z,941.5
2019-04-07T15:51:09.653Z,941.5
2019-04-07T15:54:25.964Z,941.5
2019-04-07T15:57:33.969Z,941.6
2019-04-07T16:00:44.000Z,941.6
2019-04-07T16:03:55.920Z,941.5
2019-04-07T16:07:04.568Z,941.5
2019-04-07T16:10:15.217Z,941.5
2019-04-07T16:13:31.713Z,941.5
2019-04-07T16:16:41.523Z,941.5
2019-04-07T16:19:56.546Z,941.5
2019-04-07T16:23:06.975Z,941.6
2019-04-07T16:26:22.902Z,941.5
2019-04-07T16:29:41.661Z,941.6
2019-04-07T16:32:54.780Z,941.6
2019-04-07T16:36:12.655Z,941.5
2019-04-07T16:39:23.080Z,941.6
2019-04-07T16:42:37.759Z,941.6
2019-04-07T16:46:25.599Z,941.7
2019-04-07T16:49:34.128Z,941.7
2019-04-07T16:52:51.039Z,941.7
2019-04-07T16:56:00.846Z,941.8
2019-04-07T16:59:12.385Z,941.7
2019-04-07T17:02:24.079Z,941.8
2019-04-07T17:05:34.021Z,941.8
2019-04-07T17:08:43.971Z,941.8
2019-04-07T17:11:58.437Z,941.8
2019-04-07T17:15:09.104Z,941.8
2019-04-07T17:18:20.134Z,941.8
2019-04-07T17:21:34.332Z,941.8
2019-04-07T17:24:49.907Z,941.9
2019-04-07T17:28:07.879Z,941.9
2019-04-07T17:31:22.130Z,941.9
2019-04-07T17:34:43.528Z,941.9
2019-04-07T17:37:53.423Z,942
2019-04-07T17:41:19.011Z,942
2019-04-07T17:44:28.608Z,942
2019-04-07T17:47:39.944Z,942.1
2019-04-07T17:50:49.772Z,942.2
2019-04-07T17:53:58.375Z,942.1
2019-04-07T17:57:08.801Z,942.1
2019-04-07T18:00:20.423Z,942.2
2019-04-07T18:03:30.243Z,942.3
2019-04-07T18:06:49.453Z,942.3
2019-04-07T18:09:59.439Z,942.3
2019-04-07T18:13:08.690Z,942.3
2019-04-07T18:16:26.889Z,942.3
2019-04-07T18:19:37.586Z,942.3
2019-04-07T18:22:46.328Z,942.3
2019-04-07T18:26:04.066Z,942.4
2019-04-07T18:29:28.563Z,942.4
2019-04-07T18:32:46.658Z,942.3
2019-04-07T18:36:03.188Z,942.4
2019-04-07T18:39:19.811Z,942.3
2019-04-07T18:42:30.539Z,942.4
2019-04-07T18:45:40.195Z,942.4
2019-04-07T18:49:06.061Z,942.3
2019-04-07T18:52:15.989Z,942.3
2019-04-07T18:55:39.051Z,942.3
2019-04-07T18:58:53.492Z,942.3
2019-04-07T19:02:01.604Z,942.2
2019-04-07T19:05:20.015Z,942.2
2019-04-07T19:08:28.196Z,942.3
2019-04-07T19:11:37.328Z,942.3
2019-04-07T19:15:07.830Z,942.3
2019-04-07T19:18:24.183Z,942.3
2019-04-07T19:21:33.775Z,942.3
2019-04-07T19:24:53.691Z,942.3
2019-04-07T19:28:17.707Z,942.3
2019-04-07T19:31:25.710Z,942.3
2019-04-07T19:34:34.445Z,942.3
2019-04-07T19:37:42.209Z,942.2
2019-04-07T19:40:55.254Z,942.2
2019-04-07T19:44:07.217Z,942.2
2019-04-07T19:47:36.977Z,942.2
2019-04-07T19:50:47.776Z,942.2
2019-04-07T19:54:06.552Z,942.1
2019-04-07T19:57:25.743Z,942.1
2019-04-07T20:00:33.534Z,942.1
2019-04-07T20:03:42.457Z,942.1
2019-04-07T20:07:01.142Z,942.1
2019-04-07T20:10:15.990Z,942.1
2019-04-07T20:13:40.830Z,942.1
2019-04-07T20:16:51.340Z,942.1
2019-04-07T20:20:02.097Z,942
2019-04-07T20:23:20.164Z,942
2019-04-07T20:26:38.210Z,941.9
2019-04-07T20:29:47.243Z,941.9
2019-04-07T20:33:01.964Z,942
2019-04-07T20:36:23.172Z,942
2019-04-07T20:39:37.323Z,942
2019-04-07T20:42:53.449Z,941.9
2019-04-07T20:46:07.192Z,941.9
2019-04-07T20:49:27.050Z,941.9
2019-04-07T20:52:43.945Z,941.9
2019-04-07T20:55:53.807Z,941.9
2019-04-07T20:59:09.833Z,941.9
2019-04-07T21:02:23.864Z,941.8
2019-04-07T21:05:37.792Z,941.8
2019-04-07T21:08:45.466Z,941.8
2019-04-07T21:11:53.375Z,941.8
2019-04-07T21:15:29.964Z,941.9
2019-04-07T21:18:40.246Z,941.9
2019-04-07T21:21:49.901Z,941.8
2019-04-07T21:24:59.239Z,941.8
2019-04-07T21:28:10.477Z,941.8
2019-04-07T21:31:22.602Z,941.8
2019-04-07T21:34:33.356Z,941.8
2019-04-07T21:37:48.792Z,941.7
2019-04-07T21:40:57.708Z,941.7
2019-04-07T21:44:07.775Z,941.7
2019-04-07T21:47:17.932Z,941.7
2019-04-07T21:50:32.874Z,941.7
2019-04-07T21:53:49.199Z,941.7
2019-04-07T21:56:58.096Z,941.6
2019-04-07T22:00:06.754Z,941.6
2019-04-07T22:03:22.432Z,941.6
2019-04-07T22:06:33.480Z,941.4
2019-04-07T22:09:42.766Z,941.4
2019-04-07T22:13:07.004Z,941.4
2019-04-07T22:16:16.901Z,941.4
2019-04-07T22:19:36.681Z,941.5
2019-04-07T22:23:00.672Z,941.5
2019-04-07T22:26:20.860Z,941.4
2019-04-07T22:29:32.745Z,941.4
2019-04-07T22:32:42.711Z,941.5
2019-04-07T22:35:56.103Z,941.4
2019-04-07T22:39:06.309Z,941.4
2019-04-07T22:42:19.241Z,941.4
2019-04-07T22:45:32.784Z,941.4
2019-04-07T22:48:42.421Z,941.4
2019-04-07T22:51:57.651Z,941.4
2019-04-07T22:55:09.750Z,941.3
2019-04-07T22:58:20.117Z,941.3
2019-04-07T23:01:29.245Z,941.2
2019-04-07T23:04:38.470Z,941.3
2019-04-07T23:07:48.039Z,941.2
2019-04-07T23:11:00.045Z,941.2
2019-04-07T23:14:09.446Z,941.2
2019-04-07T23:17:19.609Z,941.2
2019-04-07T23:20:26.884Z,941.1
2019-04-07T23:23:35.538Z,941.1
2019-04-07T23:26:45.132Z,941.1
2019-04-07T23:29:54.851Z,941.1
2019-04-07T23:33:04.165Z,941.1
2019-04-07T23:36:13.678Z,941
2019-04-07T23:39:21.498Z,941
2019-04-07T23:42:30.347Z,940.9
2019-04-07T23:45:39.888Z,940.9
2019-04-07T23:48:48.257Z,940.8
2019-04-07T23:51:57.747Z,940.9
2019-04-07T23:55:07.138Z,940.9
2019-04-07T23:58:14.703Z,940.8
